sensor_id;sensor_type;location;lat;lon;timestamp;P1;durP1;ratioP1;P2;durP2;ratioP2
57593;SDS011;43423;46.510;6.686;2023-02-23T00:01:39;89.85;;;31.92;;
57593;SDS011;43423;46.510;6.686;2023-02-23T00:04:06;85.70;;;30.58;;
57593;SDS011;43423;46.510;6.686;2023-02-23T00:06:33;92.43;;;32.58;;
57593;SDS011;43423;46.510;6.686;2023-02-23T00:09:00;97.07;;;34.22;;
57593;SDS011;43423;46.510;6.686;2023-02-23T00:11:26;88.15;;;31.10;;
57593;SDS011;43423;46.510;6.686;2023-02-23T00:13:53;84.18;;;31.08;;
57593;SDS011;43423;46.510;6.686;2023-02-23T00:16:22;92.15;;;32.22;;
57593;SDS011;43423;46.510;6.686;2023-02-23T00:18:49;88.35;;;31.15;;
57593;SDS011;43423;46.510;6.686;2023-02-23T00:21:22;92.85;;;33.67;;
57593;SDS011;43423;46.510;6.686;2023-02-23T00:23:53;83.18;;;32.63;;
57593;SDS011;43423;46.510;6.686;2023-02-23T00:26:25;83.30;;;29.50;;
57593;SDS011;43423;46.510;6.686;2023-02-23T00:28:54;87.15;;;30.98;;
57593;SDS011;43423;46.510;6.686;2023-02-23T00:31:20;82.38;;;33.47;;
57593;SDS011;43423;46.510;6.686;2023-02-23T00:33:53;80.32;;;30.45;;
57593;SDS011;43423;46.510;6.686;2023-02-23T00:36:22;80.53;;;30.85;;
57593;SDS011;43423;46.510;6.686;2023-02-23T00:38:56;80.10;;;30.75;;
57593;SDS011;43423;46.510;6.686;2023-02-23T00:41:24;83.55;;;28.75;;
57593;SDS011;43423;46.510;6.686;2023-02-23T00:43:53;77.05;;;27.30;;
57593;SDS011;43423;46.510;6.686;2023-02-23T00:46:24;86.45;;;30.77;;
57593;SDS011;43423;46.510;6.686;2023-02-23T00:48:51;80.55;;;28.88;;
57593;SDS011;43423;46.510;6.686;2023-02-23T00:51:20;69.28;;;26.33;;
57593;SDS011;43423;46.510;6.686;2023-02-23T00:53:46;68.95;;;28.80;;
57593;SDS011;43423;46.510;6.686;2023-02-23T00:56:12;66.63;;;25.50;;
57593;SDS011;43423;46.510;6.686;2023-02-23T00:58:39;68.90;;;29.83;;
57593;SDS011;43423;46.510;6.686;2023-02-23T01:01:06;68.97;;;26.42;;
57593;SDS011;43423;46.510;6.686;2023-02-23T01:03:36;62.10;;;24.75;;
57593;SDS011;43423;46.510;6.686;2023-02-23T01:06:03;60.63;;;26.27;;
57593;SDS011;43423;46.510;6.686;2023-02-23T01:08:31;59.95;;;25.02;;
57593;SDS011;43423;46.510;6.686;2023-02-23T01:10:58;66.75;;;26.10;;
57593;SDS011;43423;46.510;6.686;2023-02-23T01:13:29;56.80;;;24.55;;
57593;SDS011;43423;46.510;6.686;2023-02-23T01:15:54;51.05;;;22.20;;
57593;SDS011;43423;46.510;6.686;2023-02-23T01:18:20;56.25;;;23.70;;
57593;SDS011;43423;46.510;6.686;2023-02-23T01:20:45;52.97;;;21.73;;
57593;SDS011;43423;46.510;6.686;2023-02-23T01:23:11;51.80;;;21.60;;
57593;SDS011;43423;46.510;6.686;2023-02-23T01:25:40;49.17;;;21.20;;
57593;SDS011;43423;46.510;6.686;2023-02-23T01:28:07;53.50;;;22.77;;
57593;SDS011;43423;46.510;6.686;2023-02-23T01:30:33;54.67;;;22.90;;
57593;SDS011;43423;46.510;6.686;2023-02-23T01:32:59;54.50;;;23.25;;
57593;SDS011;43423;46.510;6.686;2023-02-23T01:35:27;54.85;;;22.50;;
57593;SDS011;43423;46.510;6.686;2023-02-23T01:37:53;59.83;;;24.67;;
57593;SDS011;43423;46.510;6.686;2023-02-23T01:40:19;53.55;;;22.95;;
57593;SDS011;43423;46.510;6.686;2023-02-23T01:42:57;60.50;;;23.00;;
57593;SDS011;43423;46.510;6.686;2023-02-23T01:48:04;61.47;;;26.73;;
57593;SDS011;43423;46.510;6.686;2023-02-23T01:50:36;55.65;;;22.02;;
57593;SDS011;43423;46.510;6.686;2023-02-23T01:53:05;50.15;;;21.80;;
57593;SDS011;43423;46.510;6.686;2023-02-23T01:55:31;58.55;;;23.40;;
57593;SDS011;43423;46.510;6.686;2023-02-23T01:58:00;52.75;;;23.08;;
57593;SDS011;43423;46.510;6.686;2023-02-23T02:00:29;55.72;;;23.10;;
57593;SDS011;43423;46.510;6.686;2023-02-23T02:02:57;58.50;;;23.85;;
57593;SDS011;43423;46.510;6.686;2023-02-23T02:05:25;64.30;;;27.02;;
57593;SDS011;43423;46.510;6.686;2023-02-23T02:07:52;54.47;;;23.70;;
57593;SDS011;43423;46.510;6.686;2023-02-23T02:10:24;63.28;;;26.70;;
57593;SDS011;43423;46.510;6.686;2023-02-23T02:13:10;62.25;;;28.70;;
57593;SDS011;43423;46.510;6.686;2023-02-23T02:15:52;60.78;;;26.55;;
57593;SDS011;43423;46.510;6.686;2023-02-23T02:29:26;55.03;;;24.33;;
57593;SDS011;43423;46.510;6.686;2023-02-23T02:37:36;53.10;;;22.58;;
57593;SDS011;43423;46.510;6.686;2023-02-23T02:45:53;48.97;;;21.65;;
57593;SDS011;43423;46.510;6.686;2023-02-23T02:51:13;48.95;;;22.55;;
57593;SDS011;43423;46.510;6.686;2023-02-23T02:53:50;52.45;;;21.42;;
57593;SDS011;43423;46.510;6.686;2023-02-23T02:56:30;48.63;;;21.15;;
57593;SDS011;43423;46.510;6.686;2023-02-23T02:59:04;48.15;;;20.45;;
57593;SDS011;43423;46.510;6.686;2023-02-23T03:01:52;48.92;;;22.33;;
57593;SDS011;43423;46.510;6.686;2023-02-23T03:04:36;46.95;;;21.98;;
57593;SDS011;43423;46.510;6.686;2023-02-23T03:07:26;46.17;;;20.00;;
57593;SDS011;43423;46.510;6.686;2023-02-23T03:13:16;47.33;;;22.55;;
57593;SDS011;43423;46.510;6.686;2023-02-23T03:16:14;41.70;;;20.52;;
57593;SDS011;43423;46.510;6.686;2023-02-23T03:19:24;45.60;;;21.00;;
57593;SDS011;43423;46.510;6.686;2023-02-23T03:22:17;48.10;;;20.63;;
57593;SDS011;43423;46.510;6.686;2023-02-23T03:25:21;47.10;;;21.38;;
57593;SDS011;43423;46.510;6.686;2023-02-23T03:28:14;44.38;;;20.83;;
57593;SDS011;43423;46.510;6.686;2023-02-23T03:31:08;42.15;;;20.33;;
57593;SDS011;43423;46.510;6.686;2023-02-23T03:36:57;46.53;;;19.77;;
57593;SDS011;43423;46.510;6.686;2023-02-23T03:39:53;44.55;;;19.95;;
57593;SDS011;43423;46.510;6.686;2023-02-23T03:42:45;49.78;;;21.13;;
57593;SDS011;43423;46.510;6.686;2023-02-23T03:45:32;42.55;;;20.00;;
57593;SDS011;43423;46.510;6.686;2023-02-23T03:48:16;47.53;;;21.95;;
57593;SDS011;43423;46.510;6.686;2023-02-23T03:51:04;47.60;;;20.20;;
57593;SDS011;43423;46.510;6.686;2023-02-23T03:53:53;45.70;;;21.15;;
57593;SDS011;43423;46.510;6.686;2023-02-23T03:56:45;49.85;;;21.83;;
57593;SDS011;43423;46.510;6.686;2023-02-23T03:59:35;57.15;;;23.80;;
57593;SDS011;43423;46.510;6.686;2023-02-23T04:02:25;49.53;;;22.50;;
57593;SDS011;43423;46.510;6.686;2023-02-23T04:05:13;50.97;;;22.95;;
57593;SDS011;43423;46.510;6.686;2023-02-23T04:08:01;54.10;;;23.77;;
57593;SDS011;43423;46.510;6.686;2023-02-23T04:10:49;49.25;;;21.90;;
57593;SDS011;43423;46.510;6.686;2023-02-23T04:13:57;50.90;;;22.15;;
57593;SDS011;43423;46.510;6.686;2023-02-23T04:16:28;48.50;;;21.80;;
57593;SDS011;43423;46.510;6.686;2023-02-23T04:18:55;51.05;;;21.60;;
57593;SDS011;43423;46.510;6.686;2023-02-23T04:21:20;49.10;;;21.50;;
57593;SDS011;43423;46.510;6.686;2023-02-23T04:23:46;47.88;;;20.48;;
57593;SDS011;43423;46.510;6.686;2023-02-23T04:26:11;51.83;;;21.63;;
57593;SDS011;43423;46.510;6.686;2023-02-23T04:28:37;46.10;;;20.98;;
57593;SDS011;43423;46.510;6.686;2023-02-23T04:31:03;50.72;;;21.25;;
57593;SDS011;43423;46.510;6.686;2023-02-23T04:33:29;48.47;;;21.95;;
57593;SDS011;43423;46.510;6.686;2023-02-23T04:35:54;48.28;;;21.20;;
57593;SDS011;43423;46.510;6.686;2023-02-23T04:38:20;47.38;;;21.15;;
57593;SDS011;43423;46.510;6.686;2023-02-23T04:40:46;50.53;;;21.45;;
57593;SDS011;43423;46.510;6.686;2023-02-23T04:43:12;53.13;;;23.27;;
57593;SDS011;43423;46.510;6.686;2023-02-23T04:45:38;48.08;;;21.30;;
57593;SDS011;43423;46.510;6.686;2023-02-23T04:48:03;54.10;;;21.50;;
57593;SDS011;43423;46.510;6.686;2023-02-23T04:50:29;49.00;;;22.55;;
57593;SDS011;43423;46.510;6.686;2023-02-23T04:52:55;54.63;;;22.08;;
57593;SDS011;43423;46.510;6.686;2023-02-23T04:55:22;56.58;;;23.80;;
57593;SDS011;43423;46.510;6.686;2023-02-23T04:57:49;49.60;;;21.85;;
57593;SDS011;43423;46.510;6.686;2023-02-23T05:00:16;54.40;;;23.92;;
57593;SDS011;43423;46.510;6.686;2023-02-23T05:02:43;56.60;;;24.13;;
57593;SDS011;43423;46.510;6.686;2023-02-23T05:05:09;56.63;;;23.55;;
57593;SDS011;43423;46.510;6.686;2023-02-23T05:07:36;60.97;;;22.02;;
57593;SDS011;43423;46.510;6.686;2023-02-23T05:10:03;60.45;;;23.67;;
57593;SDS011;43423;46.510;6.686;2023-02-23T05:12:30;52.95;;;22.08;;
57593;SDS011;43423;46.510;6.686;2023-02-23T05:14:56;58.78;;;22.65;;
57593;SDS011;43423;46.510;6.686;2023-02-23T05:17:22;48.03;;;21.77;;
57593;SDS011;43423;46.510;6.686;2023-02-23T05:19:47;49.67;;;21.27;;
57593;SDS011;43423;46.510;6.686;2023-02-23T05:22:13;47.83;;;22.15;;
57593;SDS011;43423;46.510;6.686;2023-02-23T05:24:39;51.35;;;22.50;;
57593;SDS011;43423;46.510;6.686;2023-02-23T05:27:08;46.47;;;20.77;;
57593;SDS011;43423;46.510;6.686;2023-02-23T05:29:34;53.83;;;20.95;;
57593;SDS011;43423;46.510;6.686;2023-02-23T05:32:01;54.25;;;21.65;;
57593;SDS011;43423;46.510;6.686;2023-02-23T05:34:26;48.35;;;21.15;;
57593;SDS011;43423;46.510;6.686;2023-02-23T05:36:52;52.28;;;21.25;;
57593;SDS011;43423;46.510;6.686;2023-02-23T05:39:18;44.90;;;20.80;;
57593;SDS011;43423;46.510;6.686;2023-02-23T05:41:44;43.67;;;21.20;;
57593;SDS011;43423;46.510;6.686;2023-02-23T05:44:10;50.13;;;21.80;;
57593;SDS011;43423;46.510;6.686;2023-02-23T05:46:36;49.63;;;20.75;;
57593;SDS011;43423;46.510;6.686;2023-02-23T05:49:01;47.45;;;19.80;;
57593;SDS011;43423;46.510;6.686;2023-02-23T05:51:28;52.28;;;21.02;;
57593;SDS011;43423;46.510;6.686;2023-02-23T05:53:55;43.80;;;21.48;;
57593;SDS011;43423;46.510;6.686;2023-02-23T05:56:20;47.85;;;21.35;;
57593;SDS011;43423;46.510;6.686;2023-02-23T05:58:50;48.20;;;21.38;;
57593;SDS011;43423;46.510;6.686;2023-02-23T06:01:17;48.78;;;20.27;;
57593;SDS011;43423;46.510;6.686;2023-02-23T06:03:43;50.65;;;21.67;;
57593;SDS011;43423;46.510;6.686;2023-02-23T06:06:09;49.33;;;21.63;;
57593;SDS011;43423;46.510;6.686;2023-02-23T06:08:35;54.67;;;21.63;;
57593;SDS011;43423;46.510;6.686;2023-02-23T06:11:01;55.17;;;21.67;;
57593;SDS011;43423;46.510;6.686;2023-02-23T06:13:28;52.17;;;22.33;;
57593;SDS011;43423;46.510;6.686;2023-02-23T06:15:54;53.88;;;21.13;;
57593;SDS011;43423;46.510;6.686;2023-02-23T06:18:19;44.28;;;20.10;;
57593;SDS011;43423;46.510;6.686;2023-02-23T06:20:46;53.55;;;21.40;;
57593;SDS011;43423;46.510;6.686;2023-02-23T06:23:12;50.38;;;20.35;;
57593;SDS011;43423;46.510;6.686;2023-02-23T06:25:40;54.38;;;20.25;;
57593;SDS011;43423;46.510;6.686;2023-02-23T06:28:06;51.00;;;21.05;;
57593;SDS011;43423;46.510;6.686;2023-02-23T06:30:33;53.30;;;20.48;;
57593;SDS011;43423;46.510;6.686;2023-02-23T06:32:59;51.10;;;20.55;;
57593;SDS011;43423;46.510;6.686;2023-02-23T06:35:25;53.20;;;21.23;;
57593;SDS011;43423;46.510;6.686;2023-02-23T06:37:51;52.10;;;20.02;;
57593;SDS011;43423;46.510;6.686;2023-02-23T06:40:18;51.42;;;20.67;;
57593;SDS011;43423;46.510;6.686;2023-02-23T06:42:44;50.42;;;21.33;;
57593;SDS011;43423;46.510;6.686;2023-02-23T06:45:10;51.75;;;20.40;;
57593;SDS011;43423;46.510;6.686;2023-02-23T06:47:35;49.42;;;19.60;;
57593;SDS011;43423;46.510;6.686;2023-02-23T06:50:01;49.08;;;19.88;;
57593;SDS011;43423;46.510;6.686;2023-02-23T06:52:28;52.40;;;21.55;;
57593;SDS011;43423;46.510;6.686;2023-02-23T06:54:53;54.00;;;21.63;;
57593;SDS011;43423;46.510;6.686;2023-02-23T06:57:19;49.90;;;20.67;;
57593;SDS011;43423;46.510;6.686;2023-02-23T06:59:46;48.70;;;20.95;;
57593;SDS011;43423;46.510;6.686;2023-02-23T07:02:11;49.60;;;21.58;;
57593;SDS011;43423;46.510;6.686;2023-02-23T07:04:37;52.90;;;21.30;;
57593;SDS011;43423;46.510;6.686;2023-02-23T07:07:03;46.55;;;20.40;;
57593;SDS011;43423;46.510;6.686;2023-02-23T07:09:29;45.38;;;19.52;;
57593;SDS011;43423;46.510;6.686;2023-02-23T07:11:55;49.10;;;20.75;;
57593;SDS011;43423;46.510;6.686;2023-02-23T07:14:20;48.83;;;20.23;;
57593;SDS011;43423;46.510;6.686;2023-02-23T07:16:46;48.65;;;21.48;;
57593;SDS011;43423;46.510;6.686;2023-02-23T07:19:11;43.08;;;20.45;;
57593;SDS011;43423;46.510;6.686;2023-02-23T07:21:37;48.65;;;21.60;;
57593;SDS011;43423;46.510;6.686;2023-02-23T07:24:03;51.38;;;21.17;;
57593;SDS011;43423;46.510;6.686;2023-02-23T07:26:33;49.40;;;20.95;;
57593;SDS011;43423;46.510;6.686;2023-02-23T07:28:59;48.33;;;19.15;;
57593;SDS011;43423;46.510;6.686;2023-02-23T07:31:25;48.30;;;19.85;;
57593;SDS011;43423;46.510;6.686;2023-02-23T07:33:51;45.40;;;18.95;;
57593;SDS011;43423;46.510;6.686;2023-02-23T07:36:19;46.35;;;20.60;;
57593;SDS011;43423;46.510;6.686;2023-02-23T07:38:48;46.72;;;20.27;;
57593;SDS011;43423;46.510;6.686;2023-02-23T07:41:14;48.08;;;20.50;;
57593;SDS011;43423;46.510;6.686;2023-02-23T07:43:39;57.05;;;20.10;;
57593;SDS011;43423;46.510;6.686;2023-02-23T07:46:05;46.30;;;19.67;;
57593;SDS011;43423;46.510;6.686;2023-02-23T07:48:30;48.05;;;20.20;;
57593;SDS011;43423;46.510;6.686;2023-02-23T07:50:56;57.05;;;19.58;;
57593;SDS011;43423;46.510;6.686;2023-02-23T07:53:22;53.63;;;21.25;;
57593;SDS011;43423;46.510;6.686;2023-02-23T07:55:57;56.60;;;21.95;;
57593;SDS011;43423;46.510;6.686;2023-02-23T07:58:23;56.88;;;22.20;;
57593;SDS011;43423;46.510;6.686;2023-02-23T08:00:48;60.05;;;21.77;;
57593;SDS011;43423;46.510;6.686;2023-02-23T08:03:14;55.83;;;21.73;;
57593;SDS011;43423;46.510;6.686;2023-02-23T08:05:39;53.47;;;22.67;;
57593;SDS011;43423;46.510;6.686;2023-02-23T08:08:05;61.55;;;23.67;;
57593;SDS011;43423;46.510;6.686;2023-02-23T08:10:30;57.17;;;22.80;;
57593;SDS011;43423;46.510;6.686;2023-02-23T08:12:56;69.10;;;24.60;;
57593;SDS011;43423;46.510;6.686;2023-02-23T08:15:22;57.30;;;23.27;;
57593;SDS011;43423;46.510;6.686;2023-02-23T08:17:48;60.80;;;25.45;;
57593;SDS011;43423;46.510;6.686;2023-02-23T08:20:13;65.30;;;25.92;;
57593;SDS011;43423;46.510;6.686;2023-02-23T08:22:39;67.57;;;25.58;;
57593;SDS011;43423;46.510;6.686;2023-02-23T08:25:04;61.08;;;24.65;;
57593;SDS011;43423;46.510;6.686;2023-02-23T08:27:34;58.00;;;24.00;;
57593;SDS011;43423;46.510;6.686;2023-02-23T08:30:00;59.53;;;25.55;;
57593;SDS011;43423;46.510;6.686;2023-02-23T08:32:28;62.17;;;25.40;;
57593;SDS011;43423;46.510;6.686;2023-02-23T08:34:54;63.50;;;26.20;;
57593;SDS011;43423;46.510;6.686;2023-02-23T08:37:22;68.13;;;26.73;;
57593;SDS011;43423;46.510;6.686;2023-02-23T08:39:48;76.40;;;25.73;;
57593;SDS011;43423;46.510;6.686;2023-02-23T08:42:15;65.07;;;26.63;;
57593;SDS011;43423;46.510;6.686;2023-02-23T08:44:40;68.60;;;27.40;;
57593;SDS011;43423;46.510;6.686;2023-02-23T08:47:06;66.05;;;25.73;;
57593;SDS011;43423;46.510;6.686;2023-02-23T08:49:31;65.50;;;26.88;;
57593;SDS011;43423;46.510;6.686;2023-02-23T08:51:57;67.45;;;26.38;;
57593;SDS011;43423;46.510;6.686;2023-02-23T08:54:23;68.95;;;26.45;;
57593;SDS011;43423;46.510;6.686;2023-02-23T08:56:48;65.57;;;27.77;;
57593;SDS011;43423;46.510;6.686;2023-02-23T08:59:14;73.57;;;28.02;;
57593;SDS011;43423;46.510;6.686;2023-02-23T09:01:39;62.05;;;25.98;;
57593;SDS011;43423;46.510;6.686;2023-02-23T09:04:07;65.68;;;27.88;;
57593;SDS011;43423;46.510;6.686;2023-02-23T09:06:32;62.15;;;25.48;;
57593;SDS011;43423;46.510;6.686;2023-02-23T09:08:59;63.88;;;26.77;;
57593;SDS011;43423;46.510;6.686;2023-02-23T09:11:25;66.50;;;27.10;;
57593;SDS011;43423;46.510;6.686;2023-02-23T09:13:50;60.60;;;26.33;;
57593;SDS011;43423;46.510;6.686;2023-02-23T09:16:16;64.65;;;26.20;;
57593;SDS011;43423;46.510;6.686;2023-02-23T09:18:42;75.40;;;26.90;;
57593;SDS011;43423;46.510;6.686;2023-02-23T09:21:12;64.00;;;26.20;;
57593;SDS011;43423;46.510;6.686;2023-02-23T09:23:43;65.97;;;26.50;;
57593;SDS011;43423;46.510;6.686;2023-02-23T09:26:09;67.82;;;26.63;;
57593;SDS011;43423;46.510;6.686;2023-02-23T09:28:35;62.95;;;26.58;;
57593;SDS011;43423;46.510;6.686;2023-02-23T09:31:06;60.85;;;26.80;;
57593;SDS011;43423;46.510;6.686;2023-02-23T09:33:34;60.38;;;25.27;;
57593;SDS011;43423;46.510;6.686;2023-02-23T09:36:03;62.05;;;25.27;;
57593;SDS011;43423;46.510;6.686;2023-02-23T09:38:30;59.83;;;26.02;;
57593;SDS011;43423;46.510;6.686;2023-02-23T09:40:56;58.40;;;25.17;;
57593;SDS011;43423;46.510;6.686;2023-02-23T09:45:56;61.25;;;24.50;;
57593;SDS011;43423;46.510;6.686;2023-02-23T09:48:24;62.63;;;26.73;;
57593;SDS011;43423;46.510;6.686;2023-02-23T09:50:53;58.42;;;27.23;;
57593;SDS011;43423;46.510;6.686;2023-02-23T09:53:26;56.45;;;25.08;;
57593;SDS011;43423;46.510;6.686;2023-02-23T09:55:59;58.78;;;25.80;;
57593;SDS011;43423;46.510;6.686;2023-02-23T10:03:56;56.00;;;24.58;;
57593;SDS011;43423;46.510;6.686;2023-02-23T10:06:29;56.58;;;23.35;;
57593;SDS011;43423;46.510;6.686;2023-02-23T10:12:02;64.75;;;24.70;;
57593;SDS011;43423;46.510;6.686;2023-02-23T10:20:25;57.85;;;24.50;;
57593;SDS011;43423;46.510;6.686;2023-02-23T10:23:01;60.38;;;23.70;;
57593;SDS011;43423;46.510;6.686;2023-02-23T10:25:32;68.38;;;25.90;;
57593;SDS011;43423;46.510;6.686;2023-02-23T10:28:02;57.40;;;24.05;;
57593;SDS011;43423;46.510;6.686;2023-02-23T10:30:29;58.33;;;24.00;;
57593;SDS011;43423;46.510;6.686;2023-02-23T10:35:37;61.47;;;27.42;;
57593;SDS011;43423;46.510;6.686;2023-02-23T10:38:03;63.85;;;25.58;;
57593;SDS011;43423;46.510;6.686;2023-02-23T10:40:30;54.10;;;23.88;;
57593;SDS011;43423;46.510;6.686;2023-02-23T10:42:59;63.00;;;25.38;;
57593;SDS011;43423;46.510;6.686;2023-02-23T10:45:26;64.18;;;26.17;;
57593;SDS011;43423;46.510;6.686;2023-02-23T10:48:00;54.85;;;24.17;;
57593;SDS011;43423;46.510;6.686;2023-02-23T10:50:30;57.00;;;24.08;;
57593;SDS011;43423;46.510;6.686;2023-02-23T10:52:58;54.05;;;23.80;;
57593;SDS011;43423;46.510;6.686;2023-02-23T10:55:26;50.47;;;21.77;;
57593;SDS011;43423;46.510;6.686;2023-02-23T10:58:03;53.47;;;22.55;;
57593;SDS011;43423;46.510;6.686;2023-02-23T11:00:34;57.53;;;24.42;;
57593;SDS011;43423;46.510;6.686;2023-02-23T11:03:14;67.72;;;27.17;;
57593;SDS011;43423;46.510;6.686;2023-02-23T11:05:46;56.22;;;24.60;;
57593;SDS011;43423;46.510;6.686;2023-02-23T11:10:59;65.43;;;27.92;;
57593;SDS011;43423;46.510;6.686;2023-02-23T11:13:44;59.08;;;24.65;;
57593;SDS011;43423;46.510;6.686;2023-02-23T11:16:16;63.38;;;26.35;;
57593;SDS011;43423;46.510;6.686;2023-02-23T11:18:49;60.97;;;27.75;;
57593;SDS011;43423;46.510;6.686;2023-02-23T11:23:58;64.57;;;27.27;;
57593;SDS011;43423;46.510;6.686;2023-02-23T11:26:32;61.13;;;24.85;;
57593;SDS011;43423;46.510;6.686;2023-02-23T11:29:03;58.67;;;25.23;;
57593;SDS011;43423;46.510;6.686;2023-02-23T11:31:39;64.25;;;25.73;;
57593;SDS011;43423;46.510;6.686;2023-02-23T11:34:18;65.50;;;27.95;;
57593;SDS011;43423;46.510;6.686;2023-02-23T11:36:56;62.60;;;27.48;;
57593;SDS011;43423;46.510;6.686;2023-02-23T11:39:24;63.22;;;27.13;;
57593;SDS011;43423;46.510;6.686;2023-02-23T11:44:39;62.05;;;27.05;;
57593;SDS011;43423;46.510;6.686;2023-02-23T11:47:05;73.35;;;28.20;;
57593;SDS011;43423;46.510;6.686;2023-02-23T11:49:43;68.22;;;27.20;;
57593;SDS011;43423;46.510;6.686;2023-02-23T11:52:15;55.20;;;25.05;;
57593;SDS011;43423;46.510;6.686;2023-02-23T11:54:49;70.07;;;28.88;;
57593;SDS011;43423;46.510;6.686;2023-02-23T11:57:19;68.80;;;28.52;;
57593;SDS011;43423;46.510;6.686;2023-02-23T11:59:46;62.90;;;25.60;;
57593;SDS011;43423;46.510;6.686;2023-02-23T12:04:42;61.22;;;26.90;;
57593;SDS011;43423;46.510;6.686;2023-02-23T12:07:26;57.70;;;25.38;;
57593;SDS011;43423;46.510;6.686;2023-02-23T12:10:42;66.43;;;26.95;;
57593;SDS011;43423;46.510;6.686;2023-02-23T12:21:27;62.03;;;25.42;;
57593;SDS011;43423;46.510;6.686;2023-02-23T12:23:57;62.33;;;24.05;;
57593;SDS011;43423;46.510;6.686;2023-02-23T12:26:43;57.42;;;25.13;;
57593;SDS011;43423;46.510;6.686;2023-02-23T12:29:20;60.40;;;25.10;;
57593;SDS011;43423;46.510;6.686;2023-02-23T12:31:58;64.93;;;25.50;;
57593;SDS011;43423;46.510;6.686;2023-02-23T12:34:29;58.58;;;25.40;;
57593;SDS011;43423;46.510;6.686;2023-02-23T12:37:04;59.92;;;24.63;;
57593;SDS011;43423;46.510;6.686;2023-02-23T12:39:42;56.33;;;24.85;;
57593;SDS011;43423;46.510;6.686;2023-02-23T12:45:05;61.38;;;25.65;;
57593;SDS011;43423;46.510;6.686;2023-02-23T12:50:38;62.20;;;25.13;;
57593;SDS011;43423;46.510;6.686;2023-02-23T12:53:21;57.80;;;24.95;;
57593;SDS011;43423;46.510;6.686;2023-02-23T12:55:58;60.13;;;24.80;;
57593;SDS011;43423;46.510;6.686;2023-02-23T12:58:49;59.72;;;24.77;;
57593;SDS011;43423;46.510;6.686;2023-02-23T13:01:30;56.25;;;25.35;;
57593;SDS011;43423;46.510;6.686;2023-02-23T13:06:57;58.50;;;24.38;;
57593;SDS011;43423;46.510;6.686;2023-02-23T13:10:09;70.53;;;27.38;;
57593;SDS011;43423;46.510;6.686;2023-02-23T13:12:47;57.55;;;26.40;;
57593;SDS011;43423;46.510;6.686;2023-02-23T13:15:41;52.40;;;24.10;;
57593;SDS011;43423;46.510;6.686;2023-02-23T13:21:12;59.42;;;24.90;;
57593;SDS011;43423;46.510;6.686;2023-02-23T13:24:05;57.95;;;24.63;;
57593;SDS011;43423;46.510;6.686;2023-02-23T13:26:41;60.00;;;23.45;;
57593;SDS011;43423;46.510;6.686;2023-02-23T13:29:23;56.75;;;22.70;;
57593;SDS011;43423;46.510;6.686;2023-02-23T13:31:49;55.42;;;24.08;;
57593;SDS011;43423;46.510;6.686;2023-02-23T13:34:18;52.28;;;24.13;;
57593;SDS011;43423;46.510;6.686;2023-02-23T13:36:49;62.00;;;26.55;;
57593;SDS011;43423;46.510;6.686;2023-02-23T13:53:05;46.22;;;21.60;;
57593;SDS011;43423;46.510;6.686;2023-02-23T13:55:49;44.78;;;19.25;;
57593;SDS011;43423;46.510;6.686;2023-02-23T13:58:25;51.40;;;21.23;;
57593;SDS011;43423;46.510;6.686;2023-02-23T14:00:53;46.30;;;19.98;;
57593;SDS011;43423;46.510;6.686;2023-02-23T14:03:29;41.75;;;19.42;;
57593;SDS011;43423;46.510;6.686;2023-02-23T14:06:00;47.35;;;19.50;;
57593;SDS011;43423;46.510;6.686;2023-02-23T14:08:30;45.55;;;20.02;;
57593;SDS011;43423;46.510;6.686;2023-02-23T14:11:01;48.60;;;18.77;;
57593;SDS011;43423;46.510;6.686;2023-02-23T14:13:29;43.25;;;18.70;;
57593;SDS011;43423;46.510;6.686;2023-02-23T14:16:07;40.42;;;18.10;;
57593;SDS011;43423;46.510;6.686;2023-02-23T14:18:33;44.75;;;17.48;;
57593;SDS011;43423;46.510;6.686;2023-02-23T14:21:04;37.00;;;17.02;;
57593;SDS011;43423;46.510;6.686;2023-02-23T14:26:10;39.25;;;17.27;;
57593;SDS011;43423;46.510;6.686;2023-02-23T14:36:40;44.55;;;17.90;;
57593;SDS011;43423;46.510;6.686;2023-02-23T14:39:00;42.95;;;17.05;;
57593;SDS011;43423;46.510;6.686;2023-02-23T14:41:37;43.38;;;18.13;;
57593;SDS011;43423;46.510;6.686;2023-02-23T14:47:00;38.85;;;17.50;;
57593;SDS011;43423;46.510;6.686;2023-02-23T14:49:31;43.90;;;18.67;;
57593;SDS011;43423;46.510;6.686;2023-02-23T14:54:37;45.05;;;17.60;;
57593;SDS011;43423;46.510;6.686;2023-02-23T14:57:05;39.28;;;17.95;;
57593;SDS011;43423;46.510;6.686;2023-02-23T14:59:42;40.65;;;18.73;;
57593;SDS011;43423;46.510;6.686;2023-02-23T15:02:09;43.00;;;18.60;;
57593;SDS011;43423;46.510;6.686;2023-02-23T15:04:46;39.33;;;17.50;;
57593;SDS011;43423;46.510;6.686;2023-02-23T15:07:16;45.60;;;18.77;;
57593;SDS011;43423;46.510;6.686;2023-02-23T15:09:50;43.15;;;19.23;;
57593;SDS011;43423;46.510;6.686;2023-02-23T15:12:27;41.55;;;17.65;;
57593;SDS011;43423;46.510;6.686;2023-02-23T15:14:59;40.33;;;17.33;;
57593;SDS011;43423;46.510;6.686;2023-02-23T15:17:27;40.15;;;18.05;;
57593;SDS011;43423;46.510;6.686;2023-02-23T15:19:57;43.05;;;18.40;;
57593;SDS011;43423;46.510;6.686;2023-02-23T15:22:35;43.10;;;18.65;;
57593;SDS011;43423;46.510;6.686;2023-02-23T15:25:22;42.58;;;17.75;;
57593;SDS011;43423;46.510;6.686;2023-02-23T15:27:50;36.78;;;18.05;;
57593;SDS011;43423;46.510;6.686;2023-02-23T15:30:27;42.65;;;18.95;;
57593;SDS011;43423;46.510;6.686;2023-02-23T15:33:02;43.90;;;19.50;;
57593;SDS011;43423;46.510;6.686;2023-02-23T15:35:55;41.55;;;19.35;;
57593;SDS011;43423;46.510;6.686;2023-02-23T15:38:43;48.30;;;19.60;;
57593;SDS011;43423;46.510;6.686;2023-02-23T15:41:27;40.78;;;19.42;;
57593;SDS011;43423;46.510;6.686;2023-02-23T15:47:05;50.13;;;20.00;;
57593;SDS011;43423;46.510;6.686;2023-02-23T15:49:40;43.72;;;20.05;;
57593;SDS011;43423;46.510;6.686;2023-02-23T15:52:13;49.03;;;20.23;;
57593;SDS011;43423;46.510;6.686;2023-02-23T15:54:51;49.00;;;19.77;;
57593;SDS011;43423;46.510;6.686;2023-02-23T15:57:28;41.28;;;19.25;;
57593;SDS011;43423;46.510;6.686;2023-02-23T16:00:03;46.88;;;20.50;;
57593;SDS011;43423;46.510;6.686;2023-02-23T16:02:40;44.70;;;19.85;;
57593;SDS011;43423;46.510;6.686;2023-02-23T16:05:19;41.05;;;19.65;;
57593;SDS011;43423;46.510;6.686;2023-02-23T16:07:46;43.92;;;19.42;;
57593;SDS011;43423;46.510;6.686;2023-02-23T16:10:22;50.08;;;21.38;;
57593;SDS011;43423;46.510;6.686;2023-02-23T16:12:51;51.72;;;22.42;;
57593;SDS011;43423;46.510;6.686;2023-02-23T16:15:25;49.90;;;21.85;;
57593;SDS011;43423;46.510;6.686;2023-02-23T16:20:28;52.55;;;22.25;;
57593;SDS011;43423;46.510;6.686;2023-02-23T16:23:01;52.15;;;23.83;;
57593;SDS011;43423;46.510;6.686;2023-02-23T16:25:27;51.72;;;23.38;;
57593;SDS011;43423;46.510;6.686;2023-02-23T16:27:59;52.70;;;24.05;;
57593;SDS011;43423;46.510;6.686;2023-02-23T16:33:43;52.53;;;24.55;;
57593;SDS011;43423;46.510;6.686;2023-02-23T16:36:35;53.38;;;23.00;;
57593;SDS011;43423;46.510;6.686;2023-02-23T16:38:40;51.53;;;22.42;;
57593;SDS011;43423;46.510;6.686;2023-02-23T16:41:20;47.78;;;22.02;;
57593;SDS011;43423;46.510;6.686;2023-02-23T16:43:47;52.22;;;21.30;;
57593;SDS011;43423;46.510;6.686;2023-02-23T16:46:14;46.67;;;21.13;;
57593;SDS011;43423;46.510;6.686;2023-02-23T16:48:40;51.80;;;21.55;;